Oswego, NY

5:09 PM EST on November 23, 2014 (GMT -0500)
Wheeler-Sack Army Air Field | Change Station
CLOSE
Current Station
Airport
Location: Fort Drum,
Elevation: 679 ft
Nearby Weather Stations
Active Advisory: High Wind Watch

Elev 679 ft 44.06 °N, 75.72 °W | Updated 11 minutes ago

Overcast
Overcast
44 °F
Feels Like 38 °F
N
12
Wind Variable Wind from SSE

Today
High -- | Low -- °F
--% Chance of Precip.
Yesterday
High -- | Low -- °F
Precip. -- in
7:09 AM 4:34 PM
New Moon, 2% visible
Pressure 29.98 in
Visibility 10.0 miles
Clouds Scattered Clouds 3000 ft
Overcast 4200 ft
Windchill 38 °F
Dew Point 38 °F
Humidity 79%
Rainfall 0.07 in
Snow Depth Not available.
UV 0 out of 12
Pollen .10 out of 12
Air Quality Not available.
Flu Activity Not available.
METAR KGTB 232158Z AUTO 15010KT 10SM SCT030 OVC042 07/03 A2996 RMK AO2 CIG 031 RWY21 SLP150 T00670033

More Conditions Fewer Conditions

Pressure 29.98 in
Visibility 10.0 miles
Clouds Scattered Clouds 3000 ft
Overcast 4200 ft
Windchill 38 °F
Dew Point 38 °F
Humidity 79%
Rainfall 0.07 in
Snow Depth Not available.
UV 0 out of 12
Pollen .10 out of 12
Air Quality Not available.
Flu Activity Not available.
METAR KGTB 232158Z AUTO 15010KT 10SM SCT030 OVC042 07/03 A2996 RMK AO2 CIG 031 RWY21 SLP150 T00670033

More Conditions Fewer Conditions

10-Day Weather Forecast

Almanac

Astronomy

Nov. 23, 2014 Rise Set
Actual Time
Civil Twilight
Nautical Twilight
Astronomical Twilight
Moon
Length of Visible Light
Length of Day
Tomorrow will be .
, % of the Moon is Illuminated

Today's Extremes

State Highs State Lows

Community

WunderPhotos

Upload Photos

1,773,183 photos uploaded!

WunderBlogs® & News

Nearby

Air Quality

  Air Quality AQ Index Pollutant
Not available.

Snow Depth

Station Depth Elevation

Earthquake Activity

City Distance Mag. Time & Date
Minimum magnitude displayed is 2.5.

Coastal Water Temperatures

Place Temperature

Nearby Weather Stations